Time;durP1;ratioP1;P1;durP2;ratioP2;P2;SDS_P1;SDS_P2;PMS_P1;PMS_P2;Temp;Humidity;BMP_temperature;BMP_pressure;BME280_temperature;BME280_humidity;BME280_pressure;Samples;Min_cycle;Max_cycle;Signal;HPM_P1;HPM_P2
2022/08/25 00:01:29;;;;;;;11.40;5.17;;;;;;;20.83;57.48;100205.06;1586345;90;21044;-67
2022/08/25 00:03:58;;;;;;;9.53;5.03;;;;;;;20.81;57.37;100204.58;1598003;87;21065;-68
2022/08/25 00:06:24;;;;;;;7.67;4.83;;;;;;;20.82;57.45;100204.81;1575048;90;21153;-68
2022/08/25 00:08:51;;;;;;;13.72;4.58;;;;;;;20.78;57.65;100199.15;1577295;89;21076;-68
2022/08/25 00:11:22;;;;;;;7.08;4.35;;;;;;;20.77;57.81;100202.17;1576444;91;21169;-68
2022/08/25 00:13:53;;;;;;;11.18;4.62;;;;;;;20.72;58.19;100203.67;1576330;91;21588;-67
2022/08/25 00:16:20;;;;;;;10.03;4.33;;;;;;;20.66;58.31;100200.23;1576073;91;21032;-68
2022/08/25 00:18:51;;;;;;;12.13;4.90;;;;;;;20.50;59.03;100194.80;1594142;89;21107;-68
2022/08/25 00:21:20;;;;;;;11.48;4.87;;;;;;;20.50;59.03;100194.80;1580037;90;21100;-69
2022/08/25 00:23:47;;;;;;;12.30;4.87;;;;;;;20.47;59.25;100200.07;1583932;90;21298;-69
2022/08/25 00:26:14;;;;;;;7.55;3.92;;;;;;;20.42;59.37;100201.80;1578998;90;21003;-68
2022/08/25 00:28:42;;;;;;;11.08;5.35;;;;;;;20.40;59.55;100204.56;1579046;90;21078;-69
2022/08/25 00:31:15;;;;;;;11.20;4.97;;;;;;;20.35;59.82;100198.62;1579037;90;21080;-68
2022/08/25 00:33:42;;;;;;;;;;;;;;;20.30;60.02;100204.71;1587728;89;20996;-69
2022/08/25 00:36:11;;;;;;;12.82;4.83;;;;;;;20.25;60.36;100203.44;1553534;90;20678;-71
2022/08/25 00:38:39;;;;;;;15.50;4.40;;;;;;;20.20;60.65;100203.53;1559472;90;21060;-72
2022/08/25 00:41:07;;;;;;;12.23;5.15;;;;;;;20.13;60.96;100197.11;1574997;90;21092;-66
2022/08/25 00:43:50;;;;;;;6.50;3.70;;;;;;;20.11;61.02;100201.23;1574504;90;21524;-68
2022/08/25 00:46:20;;;;;;;;;;;;;;;20.06;61.29;100200.77;1582784;89;21177;-69
2022/08/25 00:48:50;;;;;;;10.40;5.58;;;;;;;20.01;61.39;100201.67;1575730;90;20994;-72
2022/08/25 00:51:25;;;;;;;11.45;4.58;;;;;;;19.95;61.53;100200.13;1575180;90;21094;-69
2022/08/25 00:53:52;;;;;;;10.82;4.25;;;;;;;19.95;61.50;100200.13;1555978;90;21131;-70
2022/08/25 00:56:19;;;;;;;7.22;5.08;;;;;;;19.93;61.68;100200.19;1536529;92;21103;-69
2022/08/25 00:58:45;;;;;;;10.70;4.58;;;;;;;19.93;61.58;100194.73;1577070;90;21103;-69
2022/08/25 01:01:11;;;;;;;11.20;5.75;;;;;;;19.93;61.67;100194.73;1577480;89;22485;-74
2022/08/25 01:03:38;;;;;;;18.25;4.83;;;;;;;19.91;61.71;100193.66;1560973;90;21599;-69
2022/08/25 01:06:05;;;;;;;9.15;5.25;;;;;;;19.90;61.76;100193.39;1578802;90;21062;-70
2022/08/25 01:08:32;;;;;;;8.35;4.97;;;;;;;19.87;61.95;100189.09;1592820;90;21212;-74
2022/08/25 01:11:02;;;;;;;9.03;6.00;;;;;;;19.85;62.01;100189.97;1570640;88;21150;-68
2022/08/25 01:13:40;;;;;;;9.73;4.53;;;;;;;19.82;62.03;100194.64;1625614;88;21195;-70
2022/08/25 01:16:07;;;;;;;13.43;5.17;;;;;;;19.80;62.03;100188.68;1618501;88;21030;-73
2022/08/25 01:18:59;;;;;;;8.95;5.55;;;;;;;19.76;62.19;100195.27;1617492;88;20975;-67
2022/08/25 01:21:25;;;;;;;15.00;5.62;;;;;;;19.74;62.34;100189.87;1624536;88;20987;-77
2022/08/25 01:23:52;;;;;;;11.60;4.62;;;;;;;19.73;62.36;100195.88;1617589;88;21181;-69
2022/08/25 01:26:41;;;;;;;7.17;4.78;;;;;;;19.69;62.57;100193.49;1578608;89;21179;-69
2022/08/25 01:29:20;;;;;;;14.50;4.30;;;;;;;19.64;62.80;100194.13;1569047;91;21629;-70
2022/08/25 01:31:56;;;;;;;5.95;4.08;;;;;;;19.59;62.90;100185.47;1568190;91;21086;-69
2022/08/25 01:34:26;;;;;;;11.12;5.25;;;;;;;19.53;63.24;100187.45;1567839;91;21088;-68
2022/08/25 01:36:54;;;;;;;9.58;5.00;;;;;;;19.52;63.15;100183.65;1588076;90;21066;-69
2022/08/25 01:39:21;;;;;;;9.35;4.83;;;;;;;19.50;63.26;100185.88;1565438;90;21580;-68
2022/08/25 01:42:05;;;;;;;10.40;4.53;;;;;;;19.46;63.53;100186.23;1557007;92;21006;-69
2022/08/25 01:44:33;;;;;;;9.60;6.33;;;;;;;19.42;63.67;100187.34;1557157;92;21125;-71
2022/08/25 01:47:00;;;;;;;8.55;5.37;;;;;;;19.36;63.92;100188.52;1546336;91;22080;-69
2022/08/25 01:49:27;;;;;;;7.95;4.65;;;;;;;19.33;63.96;100190.45;1570024;90;21128;-71
2022/08/25 01:52:07;;;;;;;10.95;4.50;;;;;;;19.31;63.92;100194.05;1569982;91;21386;-70
2022/08/25 01:54:35;;;;;;;14.10;5.40;;;;;;;19.29;64.07;100192.16;1557246;90;21115;-69
2022/08/25 01:57:01;;;;;;;8.65;5.72;;;;;;;19.28;63.99;100193.84;1588310;90;21043;-68
2022/08/25 01:59:28;;;;;;;10.25;5.80;;;;;;;19.28;64.05;100189.75;1564414;90;21071;-68
2022/08/25 02:01:54;;;;;;;9.85;5.97;;;;;;;19.26;64.02;100193.31;1565889;90;21051;-69
2022/08/25 02:04:21;;;;;;;10.93;5.60;;;;;;;19.25;64.23;100194.41;1581807;88;21288;-69
2022/08/25 02:06:49;;;;;;;11.15;4.50;;;;;;;19.21;64.27;100191.47;1569543;90;21169;-69
2022/08/25 02:09:16;;;;;;;11.80;6.67;;;;;;;19.18;64.36;100196.16;1581419;90;21036;-67
2022/08/25 02:11:45;;;;;;;12.93;5.40;;;;;;;19.17;64.38;100193.16;1581441;90;21570;-71
2022/08/25 02:14:12;;;;;;;10.43;5.00;;;;;;;19.13;64.43;100194.86;1581588;90;21102;-72
2022/08/25 02:16:40;;;;;;;9.90;5.75;;;;;;;19.10;64.61;100193.52;1585296;88;21181;-71
2022/08/25 02:19:09;;;;;;;10.15;5.90;;;;;;;19.09;64.62;100189.16;1588692;88;21062;-74
2022/08/25 02:21:35;;;;;;;11.05;5.17;;;;;;;19.08;64.61;100194.93;1614804;87;21055;-69
2022/08/25 02:24:03;;;;;;;13.83;6.40;;;;;;;19.05;64.65;100192.22;1566894;90;21090;-71
2022/08/25 02:26:30;;;;;;;11.90;5.75;;;;;;;19.04;64.65;100192.53;1567135;90;21628;-68
2022/08/25 02:28:57;;;;;;;7.80;5.50;;;;;;;19.01;65.02;100197.19;1595914;89;22001;-69
2022/08/25 02:31:24;;;;;;;14.00;6.25;;;;;;;18.99;64.98;100191.24;1598980;88;21000;-71
2022/08/25 02:33:50;;;;;;;9.33;5.10;;;;;;;18.98;64.89;100192.34;1605214;88;21053;-71
2022/08/25 02:36:18;;;;;;;9.63;5.50;;;;;;;18.94;65.04;100190.76;1631507;88;21010;-71
2022/08/25 02:38:44;;;;;;;11.48;5.90;;;;;;;18.93;65.06;100193.77;1595086;88;21080;-72
2022/08/25 02:41:19;;;;;;;15.25;5.15;;;;;;;18.89;65.16;100196.82;1600731;89;21273;-72
2022/08/25 02:43:47;;;;;;;12.98;5.17;;;;;;;18.87;65.22;100194.38;1588694;89;21850;-72
2022/08/25 02:46:14;;;;;;;7.30;5.37;;;;;;;18.85;65.37;100198.52;1615949;88;21082;-71
2022/08/25 02:48:41;;;;;;;9.13;5.67;;;;;;;18.82;65.42;100190.91;1617507;87;21118;-72
2022/08/25 02:51:08;;;;;;;8.55;5.53;;;;;;;18.80;65.46;100195.27;1615869;88;21114;-72
2022/08/25 02:53:38;;;;;;;8.20;5.33;;;;;;;18.77;65.62;100194.50;1622591;87;21545;-71
2022/08/25 02:56:07;;;;;;;10.45;5.58;;;;;;;18.71;65.75;100192.39;1616068;88;20971;-70
2022/08/25 02:58:34;;;;;;;20.15;5.80;;;;;;;18.69;65.85;100199.24;1615934;88;21574;-69
2022/08/25 03:01:01;;;;;;;13.28;6.45;;;;;;;18.65;65.95;100195.48;1615846;88;21050;-70
2022/08/25 03:03:27;;;;;;;10.03;5.85;;;;;;;18.62;66.00;100194.14;1587651;88;21055;-71
2022/08/25 03:05:56;;;;;;;9.10;5.92;;;;;;;18.63;66.14;100193.04;1631677;88;21923;-69
2022/08/25 03:08:23;;;;;;;9.40;6.97;;;;;;;18.61;66.13;100195.23;1584356;88;21104;-70
2022/08/25 03:10:50;;;;;;;8.33;6.00;;;;;;;18.60;66.29;100198.27;1598014;89;20948;-69
2022/08/25 03:13:16;;;;;;;8.10;5.80;;;;;;;18.56;66.43;100196.66;1588950;88;21062;-70
2022/08/25 03:15:44;;;;;;;14.40;5.67;;;;;;;18.53;66.66;100197.76;1626996;87;21049;-69
2022/08/25 03:18:12;;;;;;;7.50;4.95;;;;;;;18.52;66.58;100194.77;1596169;90;21806;-71
2022/08/25 03:20:39;;;;;;;12.78;5.50;;;;;;;18.50;66.70;100196.44;1629234;87;21013;-70
2022/08/25 03:23:05;;;;;;;7.72;4.83;;;;;;;18.50;66.64;100201.07;1593778;89;21023;-69
2022/08/25 03:28:18;;;;;;;13.40;5.67;;;;;;;18.48;66.83;100187.73;1601045;88;21563;-74
2022/08/25 03:30:44;;;;;;;10.68;5.72;;;;;;;18.45;66.78;100193.77;1626817;88;21872;-71
2022/08/25 03:33:10;;;;;;;16.27;6.53;;;;;;;18.45;66.88;100192.95;1633546;86;21106;-72
2022/08/25 03:35:37;;;;;;;8.28;5.90;;;;;;;18.45;66.88;100199.22;1626897;88;21042;-72
2022/08/25 03:38:04;;;;;;;12.30;6.30;;;;;;;18.46;66.93;100194.03;1656925;86;21523;-71
2022/08/25 03:40:32;;;;;;;11.22;6.17;;;;;;;18.44;66.90;100192.14;1655288;86;20974;-73
2022/08/25 03:42:59;;;;;;;13.98;8.03;;;;;;;18.43;67.04;100187.78;1603905;88;21162;-71
2022/08/25 03:45:25;;;;;;;12.07;5.87;;;;;;;18.45;67.00;100187.51;1601287;88;21531;-70
2022/08/25 03:47:52;;;;;;;8.45;5.33;;;;;;;18.46;66.92;100191.31;1656778;86;21522;-74
2022/08/25 03:50:20;;;;;;;11.57;6.12;;;;;;;18.44;67.10;100192.14;1627278;88;21546;-72
2022/08/25 03:52:54;;;;;;;10.93;5.92;;;;;;;18.44;67.11;100192.14;1601442;88;21094;-70
2022/08/25 03:55:22;;;;;;;8.45;5.22;;;;;;;18.44;67.03;100193.50;1575322;88;21113;-71
2022/08/25 03:57:50;;;;;;;10.63;5.85;;;;;;;18.45;67.10;100205.21;1626990;88;21025;-70
2022/08/25 04:00:17;;;;;;;7.08;5.53;;;;;;;18.47;67.06;100212.53;1627138;88;21078;-69
2022/08/25 04:02:43;;;;;;;11.60;6.65;;;;;;;18.46;66.89;100209.02;1626843;88;21007;-69
2022/08/25 04:05:10;;;;;;;7.45;5.50;;;;;;;18.49;66.90;100198.89;1654076;86;21578;-68
2022/08/25 04:07:38;;;;;;;9.10;6.62;;;;;;;18.51;66.95;100196.67;1627152;88;21269;-70
2022/08/25 04:10:06;;;;;;;9.48;7.17;;;;;;;18.54;66.91;100196.69;1627165;88;21006;-73
2022/08/25 04:12:33;;;;;;;11.45;6.37;;;;;;;18.57;66.79;100198.28;1632069;86;20958;-71
2022/08/25 04:15:00;;;;;;;12.05;6.08;;;;;;;18.60;66.70;100197.72;1614205;88;21630;-71
2022/08/25 04:17:26;;;;;;;10.35;6.15;;;;;;;18.62;66.65;100194.14;1568976;89;21082;-69
2022/08/25 04:19:53;;;;;;;16.52;6.22;;;;;;;18.63;66.72;100193.04;1596243;89;21170;-70
2022/08/25 04:22:19;;;;;;;10.45;6.10;;;;;;;18.67;66.60;100186.45;1595576;89;21015;-70
2022/08/25 04:24:46;;;;;;;7.90;5.90;;;;;;;18.68;66.60;100188.89;1597659;88;21038;-70
2022/08/25 04:27:13;;;;;;;21.30;6.75;;;;;;;18.70;66.63;100188.03;1656929;86;21070;-72
2022/08/25 04:29:40;;;;;;;8.48;6.37;;;;;;;18.72;66.59;100189.92;1615495;88;21047;-69
2022/08/25 04:32:06;;;;;;;12.50;6.85;;;;;;;18.75;66.70;100186.37;1614315;87;21254;-70
2022/08/25 04:34:33;;;;;;;9.70;6.60;;;;;;;18.77;66.64;100175.42;1572580;90;21021;-70
2022/08/25 04:37:01;;;;;;;10.63;6.92;;;;;;;18.79;66.52;100181.41;1570862;91;21042;-69
2022/08/25 04:39:30;;;;;;;7.22;5.47;;;;;;;18.82;66.52;100174.55;1554922;91;21574;-70
2022/08/25 04:41:59;;;;;;;17.60;6.83;;;;;;;18.86;66.35;100179.13;1567706;90;21086;-71
2022/08/25 04:44:25;;;;;;;11.10;7.58;;;;;;;18.92;66.35;100173.05;1553535;92;21204;-74
2022/08/25 04:46:52;;;;;;;10.70;6.85;;;;;;;18.97;66.18;100172.99;1582730;89;21142;-72
2022/08/25 04:49:18;;;;;;;9.05;7.37;;;;;;;19.03;65.99;100170.46;1601138;89;21067;-70
2022/08/25 04:51:45;;;;;;;9.00;6.33;;;;;;;19.07;65.84;100172.86;1614403;87;20964;-69
2022/08/25 04:54:20;;;;;;;9.28;7.47;;;;;;;19.10;65.77;100172.25;1603945;88;21678;-73
2022/08/25 04:56:47;;;;;;;13.78;6.78;;;;;;;19.14;65.71;100164.55;1531857;91;20961;-69
2022/08/25 04:59:14;;;;;;;12.25;7.37;;;;;;;19.20;65.56;100161.75;1578606;91;21095;-70
2022/08/25 05:01:42;;;;;;;9.28;6.85;;;;;;;19.26;65.31;100159.22;1566534;89;22125;-70
2022/08/25 05:04:10;;;;;;;11.28;6.92;;;;;;;19.33;65.02;100163.76;1585369;89;21044;-70
2022/08/25 05:06:38;;;;;;;8.68;6.55;;;;;;;19.39;64.72;100162.00;1600893;89;21083;-70
2022/08/25 05:09:05;;;;;;;11.10;7.30;;;;;;;19.45;64.40;100162.77;1600697;89;21819;-69
2022/08/25 05:11:31;;;;;;;13.10;7.62;;;;;;;19.52;64.31;100164.00;1607373;87;21054;-69
2022/08/25 05:14:00;;;;;;;18.73;8.40;;;;;;;19.58;64.18;100166.91;1616814;87;21026;-69
2022/08/25 05:16:26;;;;;;;17.00;9.45;;;;;;;19.65;63.78;100161.63;1613640;88;21022;-69
2022/08/25 05:18:53;;;;;;;14.35;8.73;;;;;;;19.72;63.78;100160.69;1601013;89;21051;-70
2022/08/25 05:21:23;;;;;;;15.00;7.78;;;;;;;19.78;63.54;100156.77;1611295;87;21922;-70
2022/08/25 05:23:53;;;;;;;12.15;8.20;;;;;;;19.83;63.43;100160.22;1627462;87;20988;-70
2022/08/25 05:26:20;;;;;;;14.07;9.30;;;;;;;19.88;63.25;100155.23;1605005;88;20939;-70
2022/08/25 05:28:52;;;;;;;13.22;8.15;;;;;;;19.96;63.18;100164.09;1610545;88;21090;-69
2022/08/25 05:31:18;;;;;;;17.82;8.25;;;;;;;20.01;62.91;100157.98;1632501;87;21137;-72
2022/08/25 05:33:45;;;;;;;13.60;8.73;;;;;;;20.09;62.70;100162.51;1614333;88;21236;-69
2022/08/25 05:36:12;;;;;;;14.87;8.30;;;;;;;20.16;62.37;100156.08;1614256;88;21050;-74
2022/08/25 05:38:40;;;;;;;22.93;7.95;;;;;;;20.24;62.17;100156.77;1612053;88;21023;-69
2022/08/25 05:41:10;;;;;;;17.48;11.48;;;;;;;20.32;61.80;100159.63;1590071;88;21079;-69
2022/08/25 05:43:39;;;;;;;15.43;9.78;;;;;;;20.41;61.50;100162.46;1575634;90;21056;-70
2022/08/25 05:46:06;;;;;;;17.02;8.65;;;;;;;20.48;61.29;100160.12;1603418;89;21839;-68
2022/08/25 05:48:33;;;;;;;12.33;8.05;;;;;;;20.55;60.87;100161.91;1603327;89;21501;-68
2022/08/25 05:51:03;;;;;;;17.25;8.85;;;;;;;20.63;60.58;100160.37;1591625;87;21028;-70
2022/08/25 05:53:29;;;;;;;12.65;7.50;;;;;;;20.68;60.60;100155.61;1614164;88;21074;-71
2022/08/25 05:55:57;;;;;;;13.38;7.87;;;;;;;20.74;60.48;100165.89;1614155;88;21035;-70
2022/08/25 05:58:26;;;;;;;10.05;8.65;;;;;;;20.79;60.54;100157.03;1614281;88;21195;-70
2022/08/25 06:00:53;;;;;;;13.90;8.03;;;;;;;20.86;60.52;100157.98;1584700;90;21676;-69
2022/08/25 06:03:20;;;;;;;19.57;7.83;;;;;;;20.93;60.36;100155.63;1570869;91;21080;-69
2022/08/25 06:05:47;;;;;;;18.40;7.85;;;;;;;21.00;60.02;100152.48;1553588;91;21082;-70
2022/08/25 06:08:14;;;;;;;8.15;6.87;;;;;;;21.05;59.69;100153.19;1600693;88;21497;-68
2022/08/25 06:10:41;;;;;;;11.70;8.13;;;;;;;21.11;59.35;100158.77;1602952;87;22168;-71
2022/08/25 06:13:08;;;;;;;16.70;9.05;;;;;;;21.18;59.17;100159.76;1607441;88;21061;-69
2022/08/25 06:15:35;;;;;;;14.90;7.95;;;;;;;21.25;59.16;100164.23;1560469;91;21074;-69
2022/08/25 06:18:04;;;;;;;14.75;7.62;;;;;;;21.33;59.10;100166.80;1601326;89;21104;-70
2022/08/25 06:20:31;;;;;;;13.60;7.22;;;;;;;21.48;58.99;100164.53;1610437;89;21129;-70
2022/08/25 06:22:58;;;;;;;10.20;7.92;;;;;;;21.48;58.99;100164.53;1631814;87;21108;-70
2022/08/25 06:25:25;;;;;;;16.17;7.60;;;;;;;21.55;58.84;100159.97;1578217;91;21043;-69
2022/08/25 06:27:53;;;;;;;13.30;7.28;;;;;;;21.62;58.40;100163.09;1578367;91;20971;-70
2022/08/25 06:30:21;;;;;;;11.65;7.53;;;;;;;21.77;57.99;100160.54;1572973;90;21074;-68
2022/08/25 06:32:48;;;;;;;8.98;7.50;;;;;;;21.77;57.99;100160.54;1589370;88;21526;-71
2022/08/25 06:35:17;;;;;;;16.80;7.15;;;;;;;21.85;57.90;100161.14;1582680;88;21118;-70
2022/08/25 06:37:45;;;;;;;14.25;7.03;;;;;;;21.94;57.69;100171.62;1546096;91;21087;-70
2022/08/25 06:40:12;;;;;;;13.43;6.60;;;;;;;22.02;57.42;100168.11;1563827;91;21130;-71
2022/08/25 06:42:39;;;;;;;15.28;8.38;;;;;;;22.11;57.21;100170.33;1589082;90;20959;-68
2022/08/25 06:45:08;;;;;;;7.87;7.05;;;;;;;22.19;57.16;100162.73;1593574;90;21583;-72
2022/08/25 06:47:35;;;;;;;16.20;8.30;;;;;;;22.31;57.07;100168.98;1563753;90;21908;-69
2022/08/25 06:50:04;;;;;;;7.95;7.12;;;;;;;22.40;56.92;100168.45;1568244;90;21069;-69
2022/08/25 06:52:31;;;;;;;9.85;7.83;;;;;;;22.48;56.69;100168.50;1630231;87;21016;-70
2022/08/25 06:54:57;;;;;;;11.93;7.10;;;;;;;22.58;55.95;100169.59;1596085;90;21190;-71
2022/08/25 06:57:24;;;;;;;9.20;7.25;;;;;;;22.68;55.13;100168.49;1596212;90;21115;-70
2022/08/25 06:59:50;;;;;;;10.65;8.08;;;;;;;22.78;54.90;100172.31;1586221;90;21171;-69
2022/08/25 07:02:17;;;;;;;9.75;7.03;;;;;;;22.92;54.49;100172.20;1590578;90;21373;-71
2022/08/25 07:04:45;;;;;;;17.48;7.65;;;;;;;23.03;53.80;100168.81;1595714;89;21003;-69
2022/08/25 07:07:11;;;;;;;18.52;8.40;;;;;;;23.14;54.04;100165.77;1585784;89;21056;-68
2022/08/25 07:09:38;;;;;;;9.78;6.75;;;;;;;23.23;53.83;100167.95;1567707;90;21128;-70
2022/08/25 07:12:06;;;;;;;24.45;7.03;;;;;;;23.31;53.38;100167.16;1611034;87;22093;-68
2022/08/25 07:14:34;;;;;;;9.15;6.97;;;;;;;23.41;53.17;100165.44;1584024;89;21027;-70
2022/08/25 07:17:00;;;;;;;21.42;8.15;;;;;;;23.49;52.73;100164.69;1609315;89;21056;-69
2022/08/25 07:19:28;;;;;;;8.33;7.53;;;;;;;23.61;52.17;100162.64;1574626;90;21213;-70
2022/08/25 07:21:55;;;;;;;12.80;7.28;;;;;;;23.70;51.95;100156.56;1578683;90;21115;-69
2022/08/25 07:24:23;;;;;;;14.43;6.80;;;;;;;23.80;51.69;100157.03;1606766;89;21163;-70
2022/08/25 07:26:49;;;;;;;13.50;7.17;;;;;;;23.89;51.44;100157.02;1606455;89;21122;-71
2022/08/25 07:29:24;;;;;;;10.45;7.37;;;;;;;23.97;51.25;100157.58;1614195;87;20925;-70
2022/08/25 07:31:51;;;;;;;7.50;6.72;;;;;;;24.05;50.90;100155.36;1636227;87;21055;-68
2022/08/25 07:37:03;;;;;;;9.20;6.22;;;;;;;24.23;50.46;100155.56;1614370;88;21216;-70
2022/08/25 07:39:31;;;;;;;7.53;6.83;;;;;;;24.33;50.34;100151.08;1614326;88;20987;-70
2022/08/25 07:41:58;;;;;;;13.08;6.05;;;;;;;24.43;50.48;100149.09;1614480;88;21020;-69
2022/08/25 07:44:25;;;;;;;10.15;6.35;;;;;;;24.54;49.75;100147.59;1609880;88;21110;-70
2022/08/25 07:46:52;;;;;;;26.75;7.47;;;;;;;24.65;49.59;100139.20;1579265;90;22524;-71
2022/08/25 07:49:20;;;;;;;13.13;6.72;;;;;;;24.74;49.24;100144.89;1583391;88;21151;-71
2022/08/25 07:51:46;;;;;;;10.88;6.67;;;;;;;24.85;49.27;100133.47;1604182;89;20912;-71
2022/08/25 07:54:13;;;;;;;23.12;9.60;;;;;;;24.94;48.58;100136.44;1600210;89;21127;-71
2022/08/25 07:56:41;;;;;;;13.88;7.03;;;;;;;25.04;48.46;100132.48;1584834;88;20999;-71
2022/08/25 07:59:08;;;;;;;8.25;6.70;;;;;;;25.14;48.01;100132.89;1580235;88;21098;-71
2022/08/25 08:01:35;;;;;;;14.78;6.03;;;;;;;25.26;47.71;100134.91;1579330;90;21092;-71
2022/08/25 08:04:03;;;;;;;8.33;6.05;;;;;;;25.35;47.63;100127.95;1590635;88;21057;-76
2022/08/25 08:06:31;;;;;;;10.38;6.72;;;;;;;25.43;47.56;100127.86;1535331;92;21052;-71
2022/08/25 08:08:59;;;;;;;10.40;5.92;;;;;;;25.52;47.54;100124.45;1591088;87;20960;-68
2022/08/25 08:11:30;;;;;;;7.97;5.90;;;;;;;25.62;47.50;100124.63;1586168;88;21152;-70
2022/08/25 08:13:58;;;;;;;6.62;5.92;;;;;;;25.71;47.11;100121.81;1596933;88;22269;-70
2022/08/25 08:16:26;;;;;;;11.40;6.40;;;;;;;25.82;45.99;100118.27;1612029;88;20971;-68
2022/08/25 08:18:52;;;;;;;14.18;6.53;;;;;;;25.94;45.25;100117.50;1570734;91;21016;-72
2022/08/25 08:21:26;;;;;;;9.80;6.03;;;;;;;26.05;45.12;100110.38;1570962;91;21041;-71
2022/08/25 08:23:52;;;;;;;16.60;7.83;;;;;;;26.17;44.93;100104.89;1574013;90;21142;-72
2022/08/25 08:26:18;;;;;;;16.35;6.22;;;;;;;26.30;44.77;100102.95;1579355;90;21126;-71
2022/08/25 08:28:45;;;;;;;8.75;6.03;;;;;;;26.44;44.29;100102.03;1557966;90;21016;-75
2022/08/25 08:31:11;;;;;;;15.38;5.62;;;;;;;26.60;43.86;100100.77;1568776;91;21097;-71
2022/08/25 08:33:38;;;;;;;16.23;5.55;;;;;;;26.73;42.86;100105.11;1627424;87;21055;-70
2022/08/25 08:36:09;;;;;;;11.35;5.35;;;;;;;26.84;42.75;100101.53;1624048;87;21074;-71
2022/08/25 08:38:38;;;;;;;8.35;4.72;;;;;;;26.96;42.44;100093.00;1589130;90;21172;-71
2022/08/25 08:44:48;;;;;;;9.48;4.78;;;;;;;27.23;41.04;100088.91;1565544;89;21078;-72
2022/08/25 08:47:51;;;;;;;7.85;4.75;;;;;;;27.43;40.66;100088.48;1580414;89;20969;-70
2022/08/25 08:50:23;;;;;;;10.53;4.63;;;;;;;27.56;39.63;100081.76;1590127;88;21081;-72
2022/08/25 08:53:07;;;;;;;9.05;4.92;;;;;;;27.72;39.25;100086.71;1596077;89;21542;-71
2022/08/25 08:55:54;;;;;;;5.60;4.65;;;;;;;27.85;38.59;100079.16;1597223;88;21083;-73
2022/08/25 08:58:36;;;;;;;10.38;5.58;;;;;;;28.03;37.66;100082.38;1588668;88;21564;-69
2022/08/25 09:01:02;;;;;;;12.47;5.60;;;;;;;28.17;37.63;100078.03;1627594;87;21046;-70
2022/08/25 09:03:45;;;;;;;5.42;4.72;;;;;;;28.31;37.49;100080.91;1599314;89;21101;-69
2022/08/25 09:06:31;;;;;;;7.55;4.85;;;;;;;28.41;36.86;100078.40;1628343;87;21906;-69
2022/08/25 09:09:00;;;;;;;9.28;4.62;;;;;;;28.54;37.02;100078.50;1603323;89;21129;-73
2022/08/25 09:11:49;;;;;;;10.82;5.28;;;;;;;28.73;36.81;100085.29;1619605;87;20995;-73
2022/08/25 09:14:42;;;;;;;4.75;4.22;;;;;;;28.88;35.56;100078.30;1615008;87;21177;-72
2022/08/25 09:17:30;;;;;;;8.35;4.10;;;;;;;29.01;35.22;100069.28;1626470;87;21142;-72
2022/08/25 09:20:37;;;;;;;8.98;4.62;;;;;;;29.13;35.70;100069.70;1639142;87;21277;-68
2022/08/25 09:23:34;;;;;;;10.03;4.28;;;;;;;29.27;35.46;100068.61;1608036;88;21550;-69
2022/08/25 09:26:44;;;;;;;13.58;3.95;;;;;;;29.37;34.92;100066.08;1639135;87;21031;-68
2022/08/25 09:29:20;;;;;;;8.00;4.83;;;;;;;29.46;34.97;100064.45;1639470;87;21076;-69
2022/08/25 09:31:47;;;;;;;14.15;5.33;;;;;;;29.59;35.17;100054.82;1601415;88;21007;-70
2022/08/25 09:34:23;;;;;;;9.23;4.22;;;;;;;29.73;34.15;100057.05;1596028;88;21176;-68
2022/08/25 09:36:51;;;;;;;12.75;4.03;;;;;;;29.84;33.16;100058.81;1615067;87;21600;-71
2022/08/25 09:39:19;;;;;;;15.68;4.75;;;;;;;30.05;32.16;100058.41;1614728;88;21059;-69
2022/08/25 09:41:57;;;;;;;14.07;4.15;;;;;;;30.25;31.10;100056.34;1600841;88;21107;-72
2022/08/25 09:44:40;;;;;;;9.18;3.10;;;;;;;30.44;30.42;100047.11;1534351;93;21573;-69
2022/08/25 09:47:26;;;;;;;3.42;2.85;;;;;;;30.56;28.44;100048.30;1531435;93;22037;-72
2022/08/25 09:49:59;;;;;;;9.83;3.10;;;;;;;30.67;27.82;100047.28;1615489;87;21018;-72
2022/08/25 09:52:37;;;;;;;7.28;4.45;;;;;;;30.78;28.24;100041.07;1609237;87;20999;-70
2022/08/25 09:55:18;;;;;;;21.20;4.37;;;;;;;30.88;27.33;100041.22;1619022;86;21035;-70
2022/08/25 09:57:48;;;;;;;7.12;3.10;;;;;;;30.96;27.16;100045.67;1613909;88;21043;-69
2022/08/25 10:00:23;;;;;;;3.55;3.15;;;;;;;31.07;26.86;100045.84;1614780;88;21105;-70
2022/08/25 10:03:15;;;;;;;10.08;3.20;;;;;;;31.14;26.91;100041.73;1614612;88;21520;-70
2022/08/25 10:06:05;;;;;;;12.07;3.37;;;;;;;31.21;26.61;100041.84;1614664;88;21038;-74
2022/08/25 10:08:46;;;;;;;6.20;3.62;;;;;;;31.33;26.45;100036.58;1593000;87;21014;-76
2022/08/25 10:11:18;;;;;;;9.60;3.70;;;;;;;31.43;26.78;100031.14;1615489;87;21026;-75
2022/08/25 10:13:50;;;;;;;7.53;3.50;;;;;;;31.53;26.67;100017.94;1616778;87;21247;-72
2022/08/25 10:16:24;;;;;;;13.77;4.03;;;;;;;31.67;27.15;100019.28;1600700;88;21070;-73
2022/08/25 10:19:13;;;;;;;13.30;4.67;;;;;;;31.79;26.91;100014.24;1612887;88;21086;-72
2022/08/25 10:21:41;;;;;;;19.17;6.37;;;;;;;31.82;26.10;100006.50;1567285;90;21023;-73
2022/08/25 10:24:10;;;;;;;10.68;3.95;;;;;;;31.86;25.33;100005.94;1584117;90;21578;-74
2022/08/25 10:26:46;;;;;;;12.07;3.35;;;;;;;31.95;25.15;100011.97;1583322;88;21225;-76
2022/08/25 10:30:01;;;;;;;7.22;3.67;;;;;;;32.04;25.22;100005.47;1586263;88;21145;-68
2022/08/25 10:32:36;;;;;;;19.80;5.25;;;;;;;32.20;24.87;100009.98;1559654;92;21055;-66
2022/08/25 10:35:17;;;;;;;16.45;3.20;;;;;;;32.22;24.35;100004.25;1616008;87;21545;-69
2022/08/25 10:38:13;;;;;;;11.78;3.20;;;;;;;32.27;24.10;100003.09;1585707;89;20975;-68
2022/08/25 10:40:51;;;;;;;4.72;2.72;;;;;;;32.35;24.02;99999.95;1545568;90;21165;-67
2022/08/25 10:43:39;;;;;;;10.98;3.27;;;;;;;32.48;24.11;99986.48;1632001;87;21062;-69
2022/08/25 10:46:39;;;;;;;11.20;4.20;;;;;;;32.62;24.12;99997.70;1613840;88;21029;-68
2022/08/25 10:49:11;;;;;;;8.15;3.67;;;;;;;32.77;24.48;99993.02;1581758;90;21500;-69
2022/08/25 10:51:59;;;;;;;13.25;5.00;;;;;;;32.81;24.67;100000.80;1569902;90;21096;-68
2022/08/25 10:54:37;;;;;;;14.15;5.55;;;;;;;32.80;25.21;100001.41;1621915;87;68966;-67
2022/08/25 10:57:29;;;;;;;27.85;8.90;;;;;;;32.71;25.31;100004.36;1639552;87;21104;-67
2022/08/25 11:00:14;;;;;;;16.17;3.90;;;;;;;32.62;25.63;99996.30;1637270;87;21035;-69
2022/08/25 11:03:05;;;;;;;5.83;3.30;;;;;;;32.60;25.08;99988.15;1640271;87;21087;-69
2022/08/25 11:05:47;;;;;;;8.88;4.30;;;;;;;32.54;25.06;99979.36;1607594;88;21544;-72
2022/08/25 11:08:27;;;;;;;20.37;5.62;;;;;;;32.66;25.18;99975.48;1594509;88;21290;-71
2022/08/25 11:11:12;;;;;;;14.00;4.58;;;;;;;32.68;25.42;99988.41;1618249;87;21094;-76
2022/08/25 11:13:59;;;;;;;12.07;4.60;;;;;;;32.72;25.42;99987.83;1589232;90;21609;-77
2022/08/25 11:17:03;;;;;;;9.70;4.20;;;;;;;32.77;25.65;99984.66;1622545;87;21757;-71
2022/08/25 11:19:41;;;;;;;11.20;4.08;;;;;;;32.86;25.35;99976.73;1592640;88;21078;-71
2022/08/25 11:22:36;;;;;;;10.68;4.22;;;;;;;33.00;25.09;99987.15;1607108;87;21955;-75
2022/08/25 11:25:24;;;;;;;9.40;4.35;;;;;;;33.03;24.96;99979.38;1599846;88;21622;-76
2022/08/25 11:28:07;;;;;;;13.25;5.12;;;;;;;33.01;25.12;99972.00;1561115;90;21042;-73
2022/08/25 11:30:33;;;;;;;11.00;3.87;;;;;;;32.84;25.52;99970.77;1590676;87;21563;-74
2022/08/25 11:33:00;;;;;;;10.68;3.37;;;;;;;32.65;25.48;99977.47;1639693;87;21607;-76
2022/08/25 11:35:54;;;;;;;8.83;4.45;;;;;;;32.48;25.66;99968.98;1604732;89;21665;-74
2022/08/25 11:39:02;;;;;;;7.97;4.00;;;;;;;32.35;26.06;99976.88;1603308;87;21544;-70
2022/08/25 11:41:58;;;;;;;14.38;5.70;;;;;;;32.27;26.24;99966.30;1600083;88;21048;-70
2022/08/25 11:45:12;;;;;;;16.87;4.83;;;;;;;32.31;26.30;99966.32;1603337;89;21071;-70
2022/08/25 11:48:02;;;;;;;10.13;4.40;;;;;;;32.30;26.52;99973.06;1603556;89;21513;-74
2022/08/25 11:50:38;;;;;;;21.20;4.97;;;;;;;32.13;26.27;99969.59;1578024;91;21286;-73
2022/08/25 11:53:24;;;;;;;5.05;4.35;;;;;;;32.07;26.59;99969.13;1595337;87;21003;-70